Observations for PARMA, Italy (LIMP)

LIMP 181350Z 10009KT CAVOK 21/07 Q1024  
LIMP 181250Z 11008KT CAVOK 20/09 Q1024  
LIMP 181150Z 12008KT CAVOK 19/06 Q1025  
LIMP 181050Z 10008KT CAVOK 18/07 Q1025  
LIMP 180950Z 11010KT CAVOK 18/08 Q1025  
LIMP 180850Z 11006KT CAVOK 15/08 Q1025  
LIMP 180750Z 04003KT CAVOK 13/08 Q1025  
LIMP 180650Z VRB02KT CAVOK 11/07 Q1025  
LIMP 180550Z 22003KT CAVOK 08/05 Q1024  
LIMP 180500Z 21005KT CAVOK 07/04 Q1024
LIMP 171850Z 12002KT CAVOK 15/06 Q1020  
LIMP 171750Z 11003KT CAVOK 19/05 Q1019  
LIMP 171650Z 07004KT CAVOK 20/06 Q1019  
LIMP 171550Z 05004KT CAVOK 21/08 Q1019  
LIMP 171450Z 02004KT CAVOK 21/06 Q1020  
LIMP 171350Z VRB02KT CAVOK 21/06 Q1020